Terminal Aerodrome Forecast
Issued by NWS

Home | Current Version | Previous Version | Text Only | Print | Product List | Glossary On
Versions: 1 2 3 4 5 6 7 8 9 10 11 12 13 14 15
302
FTUS46 KEKA 261141
TAFUKI
TAF
KUKI 261141Z 2612/2712 16004KT P6SM OVC019
     FM261700 15006KT P6SM BKN020
     FM261900 14010KT P6SM SCT030
     FM270400 VRB03KT P6SM OVC020=

USA.gov is the U.S. government's official web portal to all federal, state and local government web resources and services.